createdAt,value
2018-09-15T00:01:40.016Z,5.50
2018-09-15T00:04:44.041Z,8.27
2018-09-15T00:07:49.022Z,6.10
2018-09-15T00:10:53.129Z,7.90
2018-09-15T00:13:57.242Z,6.07
2018-09-15T00:17:01.367Z,6.00
2018-09-15T00:20:06.185Z,8.37
2018-09-15T00:23:11.440Z,6.67
2018-09-15T00:26:15.807Z,9.33
2018-09-15T00:29:20.755Z,11.43
2018-09-15T00:32:24.954Z,9.03
2018-09-15T00:35:29.382Z,11.37
2018-09-15T00:38:33.735Z,16.77
2018-09-15T00:41:38.104Z,17.23
2018-09-15T00:44:42.394Z,28.97
2018-09-15T00:47:46.858Z,13.40
2018-09-15T00:50:57.641Z,21.87
2018-09-15T00:54:01.921Z,18.17
2018-09-15T00:57:06.427Z,12.53
2018-09-15T01:00:10.913Z,14.93
2018-09-15T01:03:15.291Z,10.53
2018-09-15T01:06:19.834Z,11.10
2018-09-15T01:09:24.112Z,9.53
2018-09-15T01:12:28.442Z,8.90
2018-09-15T01:15:32.727Z,8.23
2018-09-15T01:18:36.936Z,7.50
2018-09-15T01:21:41.206Z,7.40
2018-09-15T01:24:45.501Z,7.77
2018-09-15T01:27:49.663Z,7.60
2018-09-15T01:30:53.994Z,7.43
2018-09-15T01:33:58.094Z,6.90
2018-09-15T01:37:02.513Z,7.03
2018-09-15T01:40:06.663Z,7.33
2018-09-15T01:43:10.811Z,7.43
2018-09-15T01:46:15.126Z,6.70
2018-09-15T01:49:19.194Z,6.47
2018-09-15T01:52:23.394Z,5.33
2018-09-15T01:55:27.479Z,6.00
2018-09-15T01:58:31.677Z,6.33
2018-09-15T02:01:35.939Z,8.03
2018-09-15T02:04:40.253Z,5.63
2018-09-15T02:07:44.574Z,6.20
2018-09-15T02:10:48.797Z,6.33
2018-09-15T02:13:53.070Z,5.50
2018-09-15T02:16:57.289Z,6.47
2018-09-15T02:20:01.696Z,7.90
2018-09-15T02:23:06.024Z,5.07
2018-09-15T02:26:10.286Z,7.57
2018-09-15T02:29:14.890Z,8.20
2018-09-15T02:32:19.364Z,5.60
2018-09-15T02:35:23.515Z,8.27
2018-09-15T02:38:27.986Z,5.27
2018-09-15T02:41:32.277Z,6.03
2018-09-15T02:44:36.627Z,5.50
2018-09-15T02:47:40.846Z,4.77
2018-09-15T02:50:45.157Z,4.70
2018-09-15T02:53:49.587Z,4.90
2018-09-15T02:56:53.891Z,5.50
2018-09-15T02:59:58.233Z,4.30
2018-09-15T03:03:02.569Z,4.57
2018-09-15T03:06:06.891Z,5.37
2018-09-15T03:09:12.529Z,5.50
2018-09-15T03:12:16.949Z,5.70
2018-09-15T03:15:21.325Z,4.43
2018-09-15T03:18:25.635Z,4.50
2018-09-15T03:21:29.834Z,5.03
2018-09-15T03:24:34.112Z,5.73
2018-09-15T03:27:38.573Z,5.10
2018-09-15T03:30:42.755Z,5.70
2018-09-15T03:33:47.641Z,5.07
2018-09-15T03:36:51.928Z,5.80
2018-09-15T03:39:56.261Z,6.40
2018-09-15T03:43:00.495Z,5.37
2018-09-15T03:46:04.782Z,5.20
2018-09-15T03:49:09.858Z,6.73
2018-09-15T03:52:14.173Z,5.13
2018-09-15T03:55:18.563Z,5.17
2018-09-15T03:58:22.956Z,13.63
2018-09-15T04:01:27.415Z,6.40
2018-09-15T04:04:31.735Z,6.13
2018-09-15T04:07:35.806Z,6.30
2018-09-15T04:10:40.024Z,5.53
2018-09-15T04:13:44.325Z,6.30
2018-09-15T04:16:48.642Z,6.00
2018-09-15T04:19:52.934Z,7.63
2018-09-15T04:22:57.128Z,5.87
2018-09-15T04:26:01.550Z,5.10
2018-09-15T04:29:05.915Z,5.30
2018-09-15T04:32:10.366Z,5.70
2018-09-15T04:35:14.651Z,5.03
2018-09-15T04:38:19.241Z,5.90
2018-09-15T04:41:23.482Z,5.00
2018-09-15T04:44:27.778Z,4.20
2018-09-15T04:47:32.049Z,3.80
2018-09-15T04:50:36.359Z,6.83
2018-09-15T04:53:40.510Z,4.93
2018-09-15T04:56:44.828Z,6.80
2018-09-15T04:59:49.163Z,4.67
2018-09-15T05:02:53.453Z,5.57
2018-09-15T05:05:57.962Z,7.53
2018-09-15T05:09:02.162Z,6.00
2018-09-15T05:12:06.479Z,6.37
2018-09-15T05:15:10.906Z,5.20
2018-09-15T05:18:15.223Z,8.17
2018-09-15T05:21:19.734Z,14.00
2018-09-15T05:24:24.059Z,35.37
2018-09-15T05:27:28.317Z,21.27
2018-09-15T05:30:32.482Z,10.47
2018-09-15T05:33:36.835Z,25.97
2018-09-15T05:36:41.162Z,15.07
2018-09-15T05:39:45.453Z,10.03
2018-09-15T05:42:49.781Z,10.83
2018-09-15T05:45:54.105Z,18.13
2018-09-15T05:48:58.483Z,11.00
2018-09-15T05:52:02.748Z,11.37
2018-09-15T05:55:07.469Z,9.73
2018-09-15T05:58:11.668Z,11.43
2018-09-15T06:01:16.082Z,12.23
2018-09-15T06:04:20.297Z,9.30
2018-09-15T06:07:24.550Z,11.70
2018-09-15T06:10:28.659Z,10.93
2018-09-15T06:13:33.348Z,9.80
2018-09-15T06:16:37.762Z,11.43
2018-09-15T06:19:42.079Z,10.67
2018-09-15T06:22:46.418Z,10.40
2018-09-15T06:25:50.817Z,10.67
2018-09-15T06:28:55.755Z,10.40
2018-09-15T06:32:00.149Z,11.80
2018-09-15T06:35:05.212Z,12.20
2018-09-15T06:38:09.498Z,12.17
2018-09-15T06:41:13.834Z,12.90
2018-09-15T06:44:18.143Z,12.60
2018-09-15T06:47:22.459Z,14.03
2018-09-15T06:50:26.645Z,13.47
2018-09-15T06:53:30.914Z,12.17
2018-09-15T06:56:35.144Z,12.53
2018-09-15T06:59:39.486Z,11.60
2018-09-15T07:02:43.833Z,9.77
2018-09-15T07:05:48.107Z,10.30
2018-09-15T07:08:52.441Z,9.77
2018-09-15T07:11:56.748Z,10.73
2018-09-15T07:15:00.995Z,8.50
2018-09-15T07:18:05.460Z,8.30
2018-09-15T07:21:10.059Z,8.53
2018-09-15T07:24:14.431Z,10.17
2018-09-15T07:27:18.818Z,7.57
2018-09-15T07:30:23.080Z,7.27
2018-09-15T07:33:27.557Z,8.40
2018-09-15T07:36:31.804Z,8.13
2018-09-15T07:39:36.230Z,7.70
2018-09-15T07:42:40.843Z,8.83
2018-09-15T07:45:45.131Z,7.90
2018-09-15T07:48:49.525Z,7.65
2018-09-15T07:51:54.022Z,8.43
2018-09-15T07:54:58.264Z,7.85
2018-09-15T07:58:02.622Z,8.43
2018-09-15T08:01:06.852Z,8.10
2018-09-15T08:04:11.505Z,9.00
2018-09-15T08:07:15.919Z,7.17
2018-09-15T08:10:20.204Z,6.95
2018-09-15T08:13:24.667Z,7.35
2018-09-15T08:16:28.861Z,8.33
2018-09-15T08:19:33.311Z,9.05
2018-09-15T08:22:37.682Z,7.97
2018-09-15T08:25:42.176Z,8.80
2018-09-15T08:28:46.712Z,8.28
2018-09-15T08:31:51.334Z,6.67
2018-09-15T08:34:59.002Z,7.80
2018-09-15T08:38:03.250Z,7.30
2018-09-15T08:41:07.902Z,6.72
2018-09-15T08:44:12.374Z,7.15
2018-09-15T08:47:16.945Z,6.92
2018-09-15T08:50:21.137Z,6.53
2018-09-15T08:53:28.628Z,6.87
2018-09-15T08:56:33.419Z,4.97
2018-09-15T08:59:37.552Z,6.12
2018-09-15T09:02:42.931Z,6.62
2018-09-15T09:05:47.247Z,5.78
2018-09-15T09:08:51.551Z,5.80
2018-09-15T09:11:56.087Z,5.20
2018-09-15T09:15:00.393Z,4.62
2018-09-15T09:18:04.643Z,5.22
2018-09-15T09:21:08.904Z,5.08
2018-09-15T09:24:13.073Z,4.58
2018-09-15T09:27:18.014Z,4.22
2018-09-15T09:30:22.331Z,3.90
2018-09-15T09:33:26.437Z,3.80
2018-09-15T09:36:30.652Z,3.70
2018-09-15T09:39:35.059Z,3.60
2018-09-15T09:42:39.692Z,4.62
2018-09-15T09:45:43.926Z,3.47
2018-09-15T09:48:48.370Z,3.85
2018-09-15T09:51:52.760Z,3.02
2018-09-15T09:54:57.284Z,4.70
2018-09-15T09:58:01.701Z,3.15
2018-09-15T10:01:11.128Z,3.50
2018-09-15T10:04:15.290Z,3.98
2018-09-15T10:07:19.597Z,3.00
2018-09-15T10:10:24.145Z,3.37
2018-09-15T10:13:28.500Z,3.52
2018-09-15T10:16:32.859Z,3.12
2018-09-15T10:19:37.002Z,2.75
2018-09-15T10:22:40.899Z,3.40
2018-09-15T10:25:44.790Z,4.00
2018-09-15T10:28:48.757Z,2.27
2018-09-15T10:31:53.259Z,2.72
2018-09-15T10:34:57.697Z,2.55
2018-09-15T10:38:01.782Z,2.80
2018-09-15T10:41:05.926Z,2.62
2018-09-15T10:44:10.183Z,5.58
2018-09-15T10:47:14.572Z,2.90
2018-09-15T10:50:18.457Z,2.75
2018-09-15T10:53:22.333Z,2.70
2018-09-15T10:56:26.226Z,3.10
2018-09-15T10:59:30.245Z,3.20
2018-09-15T11:02:34.092Z,2.80
2018-09-15T11:05:38.466Z,2.73
2018-09-15T11:08:42.574Z,3.00
2018-09-15T11:11:46.875Z,3.70
2018-09-15T11:14:51.241Z,3.70
2018-09-15T11:17:55.380Z,3.20
2018-09-15T11:20:59.521Z,4.10
2018-09-15T11:24:03.508Z,3.30
2018-09-15T11:27:07.474Z,3.73
2018-09-15T11:30:11.363Z,3.87
2018-09-15T11:33:15.297Z,4.20
2018-09-15T11:36:19.271Z,2.90
2018-09-15T11:39:23.222Z,3.50
2018-09-15T11:42:27.088Z,3.83
2018-09-15T11:45:31.053Z,3.13
2018-09-15T11:48:35.427Z,3.20
2018-09-15T11:51:39.819Z,3.73
2018-09-15T11:54:44.534Z,5.87
2018-09-15T11:57:48.662Z,2.77
2018-09-15T12:00:58.415Z,3.40
2018-09-15T12:04:02.675Z,3.03
2018-09-15T12:07:06.924Z,3.20
2018-09-15T12:10:11.498Z,3.27
2018-09-15T12:13:15.893Z,3.27
2018-09-15T12:16:20.407Z,3.80
2018-09-15T12:19:24.707Z,4.10
2018-09-15T12:22:29.193Z,3.53
2018-09-15T12:25:40.207Z,3.30
2018-09-15T12:28:44.443Z,5.30
2018-09-15T12:31:48.714Z,2.90
2018-09-15T12:34:52.636Z,3.30
2018-09-15T12:37:56.514Z,3.10
2018-09-15T12:41:00.361Z,3.23
2018-09-15T12:44:04.203Z,5.07
2018-09-15T12:47:08.114Z,3.50
2018-09-15T12:50:12.467Z,3.50
2018-09-15T12:53:16.797Z,3.60
2018-09-15T12:56:21.246Z,3.53
2018-09-15T12:59:25.598Z,2.97
2018-09-15T13:02:29.881Z,3.07
2018-09-15T13:05:34.445Z,3.47
2018-09-15T13:08:38.793Z,4.10
2018-09-15T13:11:43.146Z,2.73
2018-09-15T13:14:47.509Z,5.63
2018-09-15T13:17:51.825Z,3.30
2018-09-15T13:20:56.028Z,3.47
2018-09-15T13:24:00.123Z,3.80
2018-09-15T13:27:04.477Z,5.60
2018-09-15T13:30:08.834Z,3.30
2018-09-15T13:33:13.126Z,3.50
2018-09-15T13:36:17.467Z,3.70
2018-09-15T13:39:21.779Z,3.10
2018-09-15T13:42:26.083Z,3.00
2018-09-15T13:45:30.458Z,3.17
2018-09-15T13:48:34.554Z,7.57
2018-09-15T13:51:38.858Z,3.43
2018-09-15T13:54:43.245Z,4.40
2018-09-15T13:57:47.700Z,3.00
2018-09-15T14:00:52.031Z,3.10
2018-09-15T14:03:56.336Z,2.67
2018-09-15T14:07:01.316Z,2.93
2018-09-15T14:10:07.049Z,3.10
2018-09-15T14:13:10.027Z,3.27
2018-09-15T14:16:14.468Z,3.40
2018-09-15T14:19:18.790Z,3.40
2018-09-15T14:22:23.319Z,3.23
2018-09-15T14:25:27.591Z,4.47
2018-09-15T14:28:31.939Z,4.10
2018-09-15T14:31:36.039Z,3.13
2018-09-15T14:34:40.214Z,4.87
2018-09-15T14:37:44.358Z,2.70
2018-09-15T14:40:48.557Z,3.43
2018-09-15T14:43:52.845Z,3.47
2018-09-15T14:46:57.100Z,2.80
2018-09-15T14:50:01.252Z,3.50
2018-09-15T14:53:05.583Z,3.13
2018-09-15T14:56:10.541Z,3.30
2018-09-15T14:59:15.562Z,3.93
2018-09-15T15:02:19.920Z,3.47
2018-09-15T15:05:24.270Z,3.60
2018-09-15T15:08:28.578Z,3.17
2018-09-15T15:11:32.942Z,3.97
2018-09-15T15:14:37.397Z,3.53
2018-09-15T15:17:41.720Z,2.60
2018-09-15T15:20:46.053Z,3.13
2018-09-15T15:23:54.352Z,2.90
2018-09-15T15:26:58.659Z,2.80
2018-09-15T15:30:02.922Z,3.40
2018-09-15T15:33:07.393Z,2.83
2018-09-15T15:36:11.633Z,2.97
2018-09-15T15:39:15.928Z,3.10
2018-09-15T15:42:20.651Z,3.30
2018-09-15T15:45:24.802Z,3.23
2018-09-15T15:48:29.111Z,3.50
2018-09-15T15:51:33.696Z,3.13
2018-09-15T15:54:38.097Z,4.60
2018-09-15T15:57:42.418Z,3.20
2018-09-15T16:00:46.759Z,2.83
2018-09-15T16:03:51.661Z,2.97
2018-09-15T16:06:55.998Z,3.00
2018-09-15T16:10:00.320Z,3.10
2018-09-15T16:13:04.554Z,2.63
2018-09-15T16:16:08.815Z,3.50
2018-09-15T16:19:13.540Z,3.17
2018-09-15T16:22:17.886Z,3.47
2018-09-15T16:25:22.186Z,2.97
2018-09-15T16:28:26.453Z,3.87
2018-09-15T16:31:30.720Z,3.20
2018-09-15T16:34:34.883Z,4.63
2018-09-15T16:37:39.097Z,3.87
2018-09-15T16:40:43.467Z,3.90
2018-09-15T16:43:47.899Z,3.47
2018-09-15T16:46:52.217Z,3.60
2018-09-15T16:49:56.335Z,2.53
2018-09-15T16:53:00.616Z,3.50
2018-09-15T16:56:04.947Z,3.20
2018-09-15T16:59:09.256Z,3.60
2018-09-15T17:02:13.629Z,4.03
2018-09-15T17:05:17.871Z,3.77
2018-09-15T17:08:22.306Z,3.43
2018-09-15T17:11:26.549Z,4.30
2018-09-15T17:14:30.943Z,7.13
2018-09-15T17:17:35.394Z,4.37
2018-09-15T17:20:39.764Z,3.73
2018-09-15T17:23:44.075Z,4.33
2018-09-15T17:26:48.463Z,3.47
2018-09-15T17:29:52.748Z,3.63
2018-09-15T17:32:57.043Z,4.10
2018-09-15T17:36:01.209Z,4.37
2018-09-15T17:39:08.473Z,4.30
2018-09-15T17:42:12.705Z,6.00
2018-09-15T17:45:17.293Z,11.30
2018-09-15T17:48:21.745Z,3.63
2018-09-15T17:51:26.515Z,4.27
2018-09-15T17:54:30.812Z,4.77
2018-09-15T17:57:35.106Z,6.23
2018-09-15T18:00:39.932Z,5.23
2018-09-15T18:03:44.373Z,4.70
2018-09-15T18:06:48.533Z,8.97
2018-09-15T18:09:52.909Z,4.60
2018-09-15T18:12:57.210Z,4.73
2018-09-15T18:16:01.783Z,3.90
2018-09-15T18:19:06.170Z,4.23
2018-09-15T18:22:11.260Z,6.50
2018-09-15T18:25:15.663Z,5.23
2018-09-15T18:28:19.833Z,5.53
2018-09-15T18:31:24.288Z,4.77
2018-09-15T18:34:29.159Z,5.10
2018-09-15T18:37:33.427Z,4.87
2018-09-15T18:40:37.764Z,4.93
2018-09-15T18:43:42.085Z,6.63
2018-09-15T18:46:46.429Z,5.10
2018-09-15T18:49:50.739Z,5.10
2018-09-15T18:52:55.160Z,4.70
2018-09-15T18:56:00.573Z,5.40
2018-09-15T18:59:05.094Z,5.13
2018-09-15T19:02:09.557Z,4.20
2018-09-15T19:05:13.938Z,4.33
2018-09-15T19:08:18.263Z,5.40
2018-09-15T19:11:22.602Z,5.00
2018-09-15T19:14:26.907Z,5.27
2018-09-15T19:17:31.076Z,4.40
2018-09-15T19:20:35.061Z,5.30
2018-09-15T19:23:39.407Z,4.53
2018-09-15T19:26:43.628Z,4.53
2018-09-15T19:29:47.949Z,4.90
2018-09-15T19:32:52.389Z,4.63
2018-09-15T19:35:56.732Z,5.37
2018-09-15T19:39:00.920Z,4.83
2018-09-15T19:42:05.214Z,4.60
2018-09-15T19:45:09.665Z,5.83
2018-09-15T19:48:13.995Z,6.03
2018-09-15T19:51:18.942Z,5.30
2018-09-15T19:54:23.142Z,4.60
2018-09-15T19:57:27.473Z,5.07
2018-09-15T20:00:31.811Z,5.50
2018-09-15T20:03:36.037Z,6.63
2018-09-15T20:06:40.112Z,6.07
2018-09-15T20:09:44.491Z,5.77
2018-09-15T20:12:48.582Z,7.03
2018-09-15T20:15:51.240Z,8.70
2018-09-15T20:18:53.931Z,5.83
2018-09-15T20:21:56.644Z,7.53
2018-09-15T20:25:01.002Z,7.17
2018-09-15T20:28:05.512Z,6.47
2018-09-15T20:31:09.782Z,7.70
2018-09-15T20:34:14.134Z,9.80
2018-09-15T20:37:18.414Z,9.90
2018-09-15T20:40:22.781Z,6.77
2018-09-15T20:43:26.954Z,6.00
2018-09-15T20:46:31.275Z,5.70
2018-09-15T20:49:35.579Z,4.73
2018-09-15T20:52:40.027Z,4.83
2018-09-15T20:55:44.375Z,5.20
2018-09-15T20:58:48.494Z,7.00
2018-09-15T21:01:52.655Z,7.10
2018-09-15T21:04:56.989Z,5.97
2018-09-15T21:08:01.266Z,7.90
2018-09-15T21:11:05.377Z,7.37
2018-09-15T21:14:09.730Z,6.23
2018-09-15T21:17:13.884Z,7.80
2018-09-15T21:20:18.235Z,6.17
2018-09-15T21:23:22.577Z,5.70
2018-09-15T21:26:26.977Z,7.80
2018-09-15T21:29:31.169Z,6.60
2018-09-15T21:32:35.708Z,7.83
2018-09-15T21:35:40.210Z,6.07
2018-09-15T21:38:44.592Z,6.23
2018-09-15T21:41:48.909Z,6.30
2018-09-15T21:44:53.482Z,5.83
2018-09-15T21:47:57.832Z,6.70
2018-09-15T21:51:02.078Z,6.30
2018-09-15T21:54:06.613Z,7.17
2018-09-15T21:57:10.508Z,6.33
2018-09-15T22:00:14.914Z,6.73
2018-09-15T22:03:23.418Z,7.57
2018-09-15T22:06:27.881Z,5.40
2018-09-15T22:09:32.021Z,5.90
2018-09-15T22:12:36.222Z,7.30
2018-09-15T22:15:40.155Z,6.60
2018-09-15T22:18:44.491Z,5.40
2018-09-15T22:21:48.866Z,4.93
2018-09-15T22:24:53.267Z,5.83
2018-09-15T22:27:57.757Z,5.67
2018-09-15T22:31:02.103Z,7.33
2018-09-15T22:34:06.478Z,5.73
2018-09-15T22:37:10.900Z,5.77
2018-09-15T22:40:16.097Z,5.80
2018-09-15T22:43:20.571Z,5.53
2018-09-15T22:46:24.989Z,6.13
2018-09-15T22:49:29.375Z,7.03
2018-09-15T22:52:33.550Z,5.73
2018-09-15T22:55:38.061Z,5.07
2018-09-15T22:58:42.298Z,5.37
2018-09-15T23:01:46.583Z,5.97
2018-09-15T23:04:50.905Z,6.10
2018-09-15T23:07:54.858Z,5.00
2018-09-15T23:10:59.256Z,5.77
2018-09-15T23:14:03.574Z,6.00
2018-09-15T23:17:08.055Z,5.20
2018-09-15T23:20:12.417Z,6.77
2018-09-15T23:23:16.797Z,5.23
2018-09-15T23:26:21.200Z,6.57
2018-09-15T23:29:25.502Z,5.50
2018-09-15T23:32:30.008Z,5.47
2018-09-15T23:35:34.490Z,6.37
2018-09-15T23:38:38.624Z,6.40
2018-09-15T23:41:43.104Z,5.50
2018-09-15T23:44:47.495Z,5.20
2018-09-15T23:47:51.938Z,6.10
2018-09-15T23:50:56.286Z,5.87
2018-09-15T23:54:01.634Z,5.90
2018-09-15T23:57:05.826Z,8.07
